Granite Downs, Australia
Current Conditions -  °F | °C
As of 6:00 AM on Wednesday 22 Oct 2014 (Local Time) from YCBP Reporting Station
Clear Clear  
Wind Chill: 70°   Ceiling: Unl
Heat Index: 70°   Visibility: NA
Dew Point: 41°   Wind: 14mph
Humidity: 35%   Direction: 200°SSW
Pressure: 30.03"   Gusts: NA
Location:  26.94°S, 133.49°E
Report Text: YCBP 212000Z AUTO 20012KT //// // NCD 21/05 Q1017
Loading
Personal Weather Stations






























Interactive Weather Map
Tropical Storm Tracking
New forecast layout! Learn more

10-Day Weather Forecast

Advertisements
Track Severe Weather on mobile